createdAt,value
2018-06-03T00:04:51.297Z,17.8
2018-06-03T00:15:05.674Z,12.6
2018-06-03T00:25:18.158Z,13.7
2018-06-03T00:35:32.070Z,12.6
2018-06-03T00:45:44.494Z,15.5
2018-06-03T00:55:58.666Z,14.8
2018-06-03T01:06:13.640Z,14.5
2018-06-03T01:16:27.700Z,18.1
2018-06-03T01:27:12.925Z,26.4
2018-06-03T01:37:57.799Z,23.1
2018-06-03T01:48:11.737Z,17.9
2018-06-03T01:58:26.359Z,22.7
2018-06-03T02:09:11.978Z,25.9
2018-06-03T02:19:57.100Z,23.5
2018-06-03T02:30:10.884Z,15.5
2018-06-03T02:40:24.455Z,16.4
2018-06-03T02:50:38.605Z,20.8
2018-06-03T03:01:24.165Z,24.4
2018-06-03T03:11:38.378Z,16.3
2018-06-03T03:21:53.115Z,16.5
2018-06-03T03:32:23.292Z,18.4
2018-06-03T03:43:07.660Z,25.0
2018-06-03T03:53:53.665Z,27.5
2018-06-03T04:04:39.171Z,28.4
2018-06-03T04:14:53.524Z,24.1
2018-06-03T04:25:05.932Z,23.7
2018-06-03T04:35:17.957Z,19.5
2018-06-03T04:46:05.835Z,29.0
2018-06-03T04:56:19.823Z,16.9
2018-06-03T05:06:34.328Z,15.3
2018-06-03T05:17:20.043Z,28.3
2018-06-03T05:28:04.982Z,25.5
2018-06-03T05:38:19.087Z,22.4
2018-06-03T05:48:40.302Z,22.2
2018-06-03T05:59:01.377Z,17.5
2018-06-03T06:09:25.477Z,15.7
2018-06-03T06:19:40.064Z,16.9
2018-06-03T06:29:55.524Z,17.6
2018-06-03T06:40:10.911Z,19.4
2018-06-03T06:51:11.301Z,20.2
2018-06-03T07:01:45.435Z,16.6
2018-06-03T07:12:52.668Z,20.1
2018-06-03T07:23:09.093Z,13.1
2018-06-03T07:33:33.991Z,19.0
2018-06-03T07:43:50.232Z,15.9
2018-06-03T07:54:05.669Z,14.1
2018-06-03T08:04:19.671Z,12.4
2018-06-03T08:14:45.199Z,13.3
2018-06-03T08:25:11.295Z,10.8
2018-06-03T08:35:26.714Z,14.9
2018-06-03T08:45:41.922Z,9.7
2018-06-03T08:55:56.203Z,7.8
2018-06-03T09:06:12.239Z,7.3
2018-06-03T09:17:00.089Z,6.2
2018-06-03T09:27:23.328Z,5.2
2018-06-03T09:37:39.080Z,8.5
2018-06-03T09:48:32.306Z,8.0
2018-06-03T09:59:14.692Z,6.5
2018-06-03T10:09:45.674Z,7.6
2018-06-03T10:20:00.638Z,6.8
2018-06-03T10:30:18.405Z,7.7
2018-06-03T10:40:34.230Z,7.4
2018-06-03T10:50:48.721Z,7.0
2018-06-03T11:01:33.758Z,9.2
2018-06-03T11:11:46.738Z,6.9
2018-06-03T11:22:02.431Z,7.3
2018-06-03T11:32:19.410Z,5.4
2018-06-03T11:42:35.461Z,4.8
2018-06-03T11:53:02.018Z,4.8
2018-06-03T12:16:48.513Z,5.1
2018-06-03T12:27:06.125Z,6.7
2018-06-03T12:37:20.081Z,7.2
2018-06-03T12:47:35.211Z,5.0
2018-06-03T12:57:49.129Z,4.4
2018-06-03T13:08:04.030Z,4.1
2018-06-03T13:18:18.588Z,4.8
2018-06-03T13:28:33.480Z,5.0
2018-06-03T13:38:49.172Z,4.0
2018-06-03T13:49:03.487Z,3.5
2018-06-03T13:59:49.703Z,5.1
2018-06-03T14:10:33.964Z,5.1
2018-06-03T14:20:48.398Z,5.5
2018-06-03T14:31:02.732Z,3.9
2018-06-03T14:41:16.580Z,4.1
2018-06-03T14:51:30.834Z,3.6
2018-06-03T15:25:04.628Z,3.8
2018-06-03T15:35:19.027Z,3.8
2018-06-03T15:45:40.533Z,4.2
2018-06-03T15:55:55.161Z,4.6
2018-06-03T16:49:32.730Z,3.6
2018-06-03T17:01:27.363Z,3.8
2018-06-03T17:11:42.010Z,3.6
2018-06-03T17:21:57.267Z,4.1
2018-06-03T17:32:11.589Z,3.9
2018-06-03T17:43:46.756Z,6.8
2018-06-03T17:55:28.359Z,4.2
2018-06-03T18:24:36.955Z,5.1
2018-06-03T18:59:25.135Z,6.5
2018-06-03T20:58:45.258Z,6.0
2018-06-03T21:29:22.404Z,5.0
2018-06-03T21:40:29.294Z,6.6
2018-06-03T22:03:35.871Z,3.9
2018-06-03T22:14:21.697Z,6.0
2018-06-03T22:37:18.819Z,6.0
2018-06-03T22:48:39.416Z,7.8
2018-06-03T22:58:53.788Z,8.6
2018-06-03T23:25:07.032Z,8.3
2018-06-03T23:52:13.732Z,5.8
